Time;durP1;ratioP1;P1;durP2;ratioP2;P2;SDS_P1;SDS_P2;PMS_P1;PMS_P2;Temp;Humidity;BMP_temperature;BMP_pressure;BME280_temperature;BME280_humidity;BME280_pressure;Samples;Min_cycle;Max_cycle;Signal;HPM_P1;HPM_P2
2021/05/20 00:02:04;;;;;;;53.85;31.75;;;;;;;-143.98;100.00;68091.63;6220709;23;20320;-82
2021/05/20 00:04:37;;;;;;;50.58;30.70;;;;;;;-143.98;100.00;68091.63;6247116;23;20072;-82
2021/05/20 00:07:04;;;;;;;41.42;29.00;;;;;;;-143.98;100.00;68091.63;6245768;23;20138;-82
2021/05/20 00:09:31;;;;;;;37.85;27.33;;;;;;;-143.98;100.00;68091.63;6223599;23;20050;-82
2021/05/20 00:11:58;;;;;;;39.53;27.88;;;;;;;-143.98;100.00;68091.63;6246928;23;20024;-82
2021/05/20 00:14:31;;;;;;;42.05;27.27;;;;;;;-143.98;100.00;68091.63;6223333;23;20071;-82
2021/05/20 00:16:58;;;;;;;43.80;28.20;;;;;;;-143.98;100.00;68091.63;6247479;23;20023;-82
2021/05/20 00:19:25;;;;;;;43.13;26.85;;;;;;;-143.98;100.00;68091.63;6247497;23;20070;-82
2021/05/20 00:21:52;;;;;;;41.03;27.17;;;;;;;-143.98;100.00;68091.63;6223868;23;20028;-82
2021/05/20 00:24:25;;;;;;;42.75;29.13;;;;;;;-143.98;100.00;68091.63;6247890;23;20028;-82
2021/05/20 00:26:52;;;;;;;41.75;28.05;;;;;;;-143.98;100.00;68091.63;6249095;22;20024;-82
2021/05/20 00:29:20;;;;;;;39.47;27.90;;;;;;;-143.98;100.00;68091.63;6248095;23;20039;-82
2021/05/20 00:31:50;;;;;;;47.28;30.05;;;;;;;-143.98;100.00;68091.63;6247672;23;20024;-81
2021/05/20 00:34:17;;;;;;;54.22;31.02;;;;;;;-143.98;100.00;68091.63;6247735;23;20076;-81
2021/05/20 00:36:56;;;;;;;50.33;30.48;;;;;;;-143.98;100.00;68091.63;6247576;23;20146;-81
2021/05/20 00:39:29;;;;;;;51.78;32.10;;;;;;;-143.98;100.00;68091.63;6222742;23;20315;-82
2021/05/20 00:41:56;;;;;;;62.67;36.58;;;;;;;-143.98;100.00;68091.63;6222441;23;20059;-82
2021/05/20 00:44:25;;;;;;;64.97;39.75;;;;;;;-143.98;100.00;68091.63;6247566;23;20075;-82
2021/05/20 00:46:58;;;;;;;63.30;38.95;;;;;;;-143.98;100.00;68091.63;6223600;23;20032;-82
2021/05/20 00:49:28;;;;;;;60.20;37.28;;;;;;;-143.98;100.00;68091.63;6248898;23;20039;-82
2021/05/20 00:52:01;;;;;;;65.38;40.63;;;;;;;-143.98;100.00;68091.63;6262860;22;20028;-81
2021/05/20 00:54:28;;;;;;;70.50;39.20;;;;;;;-143.98;100.00;68091.63;6268820;22;20016;-81
2021/05/20 00:56:57;;;;;;;63.30;40.17;;;;;;;-143.98;100.00;68091.63;6257937;22;20058;-82
2021/05/20 00:59:27;;;;;;;60.75;37.17;;;;;;;-143.98;100.00;68091.63;6251066;22;20047;-82
2021/05/20 01:02:00;;;;;;;61.47;35.00;;;;;;;-143.98;100.00;68091.63;6249429;23;20028;-82
2021/05/20 01:04:30;;;;;;;55.22;34.35;;;;;;;-143.98;100.00;68091.63;6268761;22;20267;-81
2021/05/20 01:07:06;;;;;;;53.30;34.47;;;;;;;-143.98;100.00;68091.63;6260520;22;20051;-82
2021/05/20 01:09:41;;;;;;;60.80;35.65;;;;;;;-143.98;100.00;68091.63;6249085;23;20016;-81
2021/05/20 01:12:10;;;;;;;58.90;34.17;;;;;;;-143.98;100.00;68091.63;6249437;23;20149;-81
2021/05/20 01:14:38;;;;;;;53.50;33.30;;;;;;;-143.98;100.00;68091.63;6249159;23;20310;-81
2021/05/20 01:17:08;;;;;;;58.70;35.08;;;;;;;-143.98;100.00;68091.63;6250150;22;20028;-82
2021/05/20 01:19:36;;;;;;;54.17;34.92;;;;;;;-143.98;100.00;68091.63;6223535;23;20039;-81
2021/05/20 01:22:04;;;;;;;56.97;32.42;;;;;;;-143.98;100.00;68091.63;6248975;23;20024;-82
2021/05/20 01:24:32;;;;;;;52.28;32.50;;;;;;;-143.98;100.00;68091.63;6248396;23;20028;-83
2021/05/20 01:27:03;;;;;;;54.10;32.97;;;;;;;-143.98;100.00;68091.63;6223952;23;20038;-80
2021/05/20 01:29:34;;;;;;;51.35;31.85;;;;;;;-143.98;100.00;68091.63;6224177;23;20032;-80
2021/05/20 01:32:04;;;;;;;53.38;32.45;;;;;;;-143.98;100.00;68091.63;6253662;23;20024;-81
2021/05/20 01:34:33;;;;;;;47.72;31.40;;;;;;;-143.98;100.00;68091.63;6229953;23;20024;-81
2021/05/20 01:37:01;;;;;;;63.25;32.30;;;;;;;-143.98;100.00;68091.63;6252791;23;20028;-81
2021/05/20 01:39:28;;;;;;;54.63;32.10;;;;;;;-143.98;100.00;68091.63;6249814;23;20317;-81
2021/05/20 01:42:00;;;;;;;52.40;33.78;;;;;;;-143.98;100.00;68091.63;6223727;23;20055;-81
2021/05/20 01:44:30;;;;;;;56.47;32.63;;;;;;;-143.98;100.00;68091.63;6249133;23;20044;-81
2021/05/20 01:47:01;;;;;;;54.03;31.13;;;;;;;-143.98;100.00;68091.63;6248859;23;20035;-82
2021/05/20 01:49:30;;;;;;;50.83;32.38;;;;;;;-143.98;100.00;68091.63;6248230;23;20107;-81
2021/05/20 01:52:00;;;;;;;54.45;31.42;;;;;;;-143.98;100.00;68091.63;6223598;23;20086;-80
2021/05/20 01:54:32;;;;;;;49.08;31.70;;;;;;;-143.98;100.00;68091.63;6248164;23;20031;-80
2021/05/20 01:57:03;;;;;;;51.97;30.48;;;;;;;-143.98;100.00;68091.63;6247243;23;20032;-81
2021/05/20 01:59:33;;;;;;;46.20;30.23;;;;;;;-143.98;100.00;68091.63;6249032;23;20035;-80
2021/05/20 02:02:04;;;;;;;44.97;28.00;;;;;;;-143.98;100.00;68091.63;6223883;23;20341;-81
2021/05/20 02:04:37;;;;;;;44.20;29.00;;;;;;;-143.98;100.00;68091.63;6248897;22;20016;-81
2021/05/20 02:07:03;;;;;;;53.25;32.13;;;;;;;-143.98;100.00;68091.63;6248114;23;20487;-81
2021/05/20 02:09:36;;;;;;;54.05;31.58;;;;;;;-143.98;100.00;68091.63;6248027;23;20126;-81
2021/05/20 02:12:06;;;;;;;47.95;29.52;;;;;;;-143.98;100.00;68091.63;6248408;23;20361;-81
2021/05/20 02:14:36;;;;;;;48.80;29.30;;;;;;;-143.98;100.00;68091.63;6250301;22;20386;-81
2021/05/20 02:17:03;;;;;;;51.88;33.40;;;;;;;-143.98;100.00;68091.63;6248989;22;20055;-81
2021/05/20 02:19:32;;;;;;;54.65;32.83;;;;;;;-143.98;100.00;68091.63;6221535;23;20028;-81
2021/05/20 02:21:59;;;;;;;52.67;30.55;;;;;;;-143.98;100.00;68091.63;6249807;23;20426;-80
2021/05/20 02:24:40;;;;;;;53.45;33.42;;;;;;;-143.98;100.00;68091.63;6224676;23;20020;-80
2021/05/20 02:27:07;;;;;;;51.13;31.77;;;;;;;-143.98;100.00;68091.63;6251361;23;20075;-81
2021/05/20 02:29:35;;;;;;;53.33;32.13;;;;;;;-143.98;100.00;68091.63;6250675;23;20044;-80
2021/05/20 02:32:05;;;;;;;51.65;32.92;;;;;;;-143.98;100.00;68091.63;6251972;22;20028;-81
2021/05/20 02:34:36;;;;;;;58.47;33.70;;;;;;;-143.98;100.00;68091.63;6249915;23;20096;-80
2021/05/20 02:37:06;;;;;;;46.88;30.10;;;;;;;-143.98;100.00;68091.63;6228630;23;20039;-81
2021/05/20 02:39:37;;;;;;;45.22;28.77;;;;;;;-143.98;100.00;68091.63;6253121;23;20039;-81
2021/05/20 02:42:04;;;;;;;55.35;31.80;;;;;;;-143.98;100.00;68091.63;6227545;23;20107;-81
2021/05/20 02:44:31;;;;;;;50.10;30.35;;;;;;;-143.98;100.00;68091.63;6250221;23;20028;-81
2021/05/20 02:46:59;;;;;;;46.25;30.70;;;;;;;-143.98;100.00;68091.63;6226982;23;20050;-81
2021/05/20 02:49:29;;;;;;;52.17;31.85;;;;;;;-143.98;100.00;68091.63;6226943;23;20024;-81
2021/05/20 02:51:57;;;;;;;57.10;32.28;;;;;;;-143.98;100.00;68091.63;6230682;23;20034;-80
2021/05/20 02:54:23;;;;;;;49.50;31.42;;;;;;;-143.98;100.00;68091.63;6241788;23;20111;-80
2021/05/20 02:56:50;;;;;;;50.65;31.00;;;;;;;-143.98;100.00;68091.63;6261124;23;20123;-80
2021/05/20 02:59:20;;;;;;;53.08;32.25;;;;;;;-143.98;100.00;68091.63;6251112;23;20024;-80
2021/05/20 03:01:47;;;;;;;50.65;31.65;;;;;;;-143.98;100.00;68091.63;6225554;23;20024;-80
2021/05/20 03:04:19;;;;;;;51.38;30.83;;;;;;;-143.98;100.00;68091.63;6251934;22;20016;-80
2021/05/20 03:06:46;;;;;;;48.50;30.15;;;;;;;-143.98;100.00;68091.63;6251650;23;20378;-79
2021/05/20 03:09:13;;;;;;;44.83;29.88;;;;;;;-143.98;100.00;68091.63;6252366;23;20024;-80
2021/05/20 03:11:40;;;;;;;50.88;31.08;;;;;;;-143.98;100.00;68091.63;6225709;23;20090;-79
2021/05/20 03:14:07;;;;;;;45.15;29.33;;;;;;;-143.98;100.00;68091.63;6249075;23;20031;-80
2021/05/20 03:16:36;;;;;;;45.80;31.65;;;;;;;-143.98;100.00;68091.63;6248380;23;20416;-79
2021/05/20 03:19:03;;;;;;;51.15;31.60;;;;;;;-143.98;100.00;68091.63;6250696;22;20124;-79
2021/05/20 03:21:30;;;;;;;45.28;29.70;;;;;;;-143.98;100.00;68091.63;6225618;23;20029;-81
2021/05/20 03:23:57;;;;;;;51.28;32.30;;;;;;;-143.98;100.00;68091.63;6249584;23;20034;-80
2021/05/20 03:26:24;;;;;;;49.30;31.50;;;;;;;-143.98;100.00;68091.63;6249739;22;20015;-80
2021/05/20 03:28:50;;;;;;;54.95;33.42;;;;;;;-143.98;100.00;68091.63;6250413;23;20032;-80
2021/05/20 03:31:18;;;;;;;55.75;32.50;;;;;;;-143.98;100.00;68091.63;6224728;23;20039;-79
2021/05/20 03:33:44;;;;;;;54.13;32.80;;;;;;;-143.98;100.00;68091.63;6248191;23;20114;-80
2021/05/20 03:36:11;;;;;;;53.78;33.50;;;;;;;-143.98;100.00;68091.63;6224125;23;20062;-80
2021/05/20 03:38:38;;;;;;;53.47;33.05;;;;;;;-143.98;100.00;68091.63;6223413;23;20035;-81
2021/05/20 03:41:05;;;;;;;49.20;33.13;;;;;;;-143.98;100.00;68091.63;6252655;22;20028;-80
2021/05/20 03:43:35;;;;;;;53.03;32.97;;;;;;;-143.98;100.00;68091.63;6225779;23;20035;-81
2021/05/20 03:46:22;;;;;;;44.83;30.95;;;;;;;-143.98;100.00;68091.63;6251898;23;20024;-81
2021/05/20 03:48:55;;;;;;;48.72;31.23;;;;;;;-143.98;100.00;68091.63;6227043;23;20028;-81
2021/05/20 03:51:22;;;;;;;51.45;31.70;;;;;;;-143.98;100.00;68091.63;6249940;23;20024;-80
2021/05/20 03:53:48;;;;;;;52.70;33.72;;;;;;;-143.98;100.00;68091.63;6253189;22;20034;-79
2021/05/20 03:56:16;;;;;;;54.03;33.58;;;;;;;-143.98;100.00;68091.63;6248109;23;20024;-80
2021/05/20 03:58:42;;;;;;;51.78;35.08;;;;;;;-143.98;100.00;68091.63;6248734;23;20024;-79
2021/05/20 04:01:09;;;;;;;57.00;35.65;;;;;;;-143.98;100.00;68091.63;6249679;23;20038;-81
2021/05/20 04:03:36;;;;;;;51.50;32.50;;;;;;;-143.98;100.00;68091.63;6225136;23;20058;-79
2021/05/20 04:06:04;;;;;;;42.55;29.50;;;;;;;-143.98;100.00;68091.63;6250042;23;20029;-82
2021/05/20 04:08:35;;;;;;;42.83;29.55;;;;;;;-143.98;100.00;68091.63;6264610;22;20024;-80
2021/05/20 04:11:02;;;;;;;44.10;29.85;;;;;;;-143.98;100.00;68091.63;6269509;22;20032;-80
2021/05/20 04:13:33;;;;;;;40.05;28.52;;;;;;;-143.98;100.00;68091.63;6232725;23;20024;-81
2021/05/20 04:16:00;;;;;;;40.50;29.27;;;;;;;-143.98;100.00;68091.63;6240327;22;20090;-81
2021/05/20 04:18:30;;;;;;;44.80;28.70;;;;;;;-143.98;100.00;68091.63;6242351;23;20027;-81
2021/05/20 04:20:57;;;;;;;46.45;31.08;;;;;;;-143.98;100.00;68091.63;6243999;22;20030;-82
2021/05/20 04:23:25;;;;;;;46.63;31.85;;;;;;;-143.98;100.00;68091.63;6264945;22;20028;-80
2021/05/20 04:25:56;;;;;;;45.60;31.92;;;;;;;-143.98;100.00;68091.63;6250615;23;20074;-81
2021/05/20 04:28:30;;;;;;;45.15;32.03;;;;;;;-143.98;100.00;68091.63;6224953;23;20038;-81
2021/05/20 04:30:59;;;;;;;54.60;35.65;;;;;;;-143.98;100.00;68091.63;6249459;23;20055;-81
2021/05/20 04:33:28;;;;;;;71.30;42.83;;;;;;;-143.98;100.00;68091.63;6247422;23;20332;-81
2021/05/20 04:35:58;;;;;;;68.78;43.13;;;;;;;-143.98;100.00;68091.63;6221548;23;20031;-82
2021/05/20 04:38:30;;;;;;;53.10;38.60;;;;;;;-143.98;100.00;68091.63;6223631;23;20055;-81
2021/05/20 04:40:57;;;;;;;49.67;34.72;;;;;;;-143.98;100.00;68091.63;6247561;23;20110;-83
2021/05/20 04:43:29;;;;;;;42.83;31.48;;;;;;;-143.98;100.00;68091.63;6248116;23;20123;-84
2021/05/20 04:45:58;;;;;;;37.35;27.50;;;;;;;-143.98;100.00;68091.63;6224187;23;20132;-83
2021/05/20 04:48:28;;;;;;;26.17;20.48;;;;;;;-143.98;100.00;68091.63;6226434;23;20020;-85
2021/05/20 04:51:00;;;;;;;27.15;21.23;;;;;;;-143.98;100.00;68091.63;6249746;23;20024;-84
2021/05/20 04:53:35;;;;;;;21.25;16.88;;;;;;;-143.98;100.00;68091.63;6223097;23;20024;-85
2021/05/20 04:56:03;;;;;;;21.75;17.15;;;;;;;-143.98;100.00;68091.63;6247430;23;20313;-84
2021/05/20 04:58:33;;;;;;;23.50;17.02;;;;;;;-143.98;100.00;68091.63;6221237;23;20028;-84
2021/05/20 05:01:07;;;;;;;18.20;15.20;;;;;;;-143.98;100.00;68091.63;6220502;23;20193;-85
2021/05/20 05:03:33;;;;;;;18.15;15.00;;;;;;;-143.98;100.00;68091.63;6247329;23;20502;-84
2021/05/20 05:06:00;;;;;;;17.98;14.05;;;;;;;-143.98;100.00;68091.63;6223514;23;20030;-84
2021/05/20 05:08:33;;;;;;;17.67;13.55;;;;;;;-143.98;100.00;68091.63;6221701;23;20047;-84
2021/05/20 05:11:02;;;;;;;17.00;13.20;;;;;;;-143.98;100.00;68091.63;6251979;23;20024;-83
2021/05/20 05:13:29;;;;;;;14.20;12.13;;;;;;;-143.98;100.00;68091.63;6222804;23;20185;-85
2021/05/20 05:16:01;;;;;;;13.98;11.88;;;;;;;-143.98;100.00;68091.63;6245081;23;20023;-85
2021/05/20 05:18:31;;;;;;;13.50;11.05;;;;;;;-143.98;100.00;68091.63;6245715;23;20042;-85
2021/05/20 05:21:02;;;;;;;12.23;10.82;;;;;;;-143.98;100.00;68091.63;6221483;23;20057;-85
2021/05/20 05:23:33;;;;;;;16.30;10.60;;;;;;;-143.98;100.00;68091.63;6222367;23;20432;-85
2021/05/20 05:26:00;;;;;;;13.52;10.35;;;;;;;-143.98;100.00;68091.63;6220424;23;20070;-85
2021/05/20 05:28:35;;;;;;;12.25;10.02;;;;;;;-143.98;100.00;68091.63;6221696;23;20028;-84
2021/05/20 05:31:05;;;;;;;12.73;9.80;;;;;;;-143.98;100.00;68091.63;6246671;22;20024;-84
2021/05/20 05:33:32;;;;;;;12.73;9.80;;;;;;;-143.98;100.00;68091.63;6220163;23;20218;-86
2021/05/20 05:36:05;;;;;;;12.30;9.63;;;;;;;-143.98;100.00;68091.63;6243635;23;20493;-86
2021/05/20 05:38:38;;;;;;;13.63;10.00;;;;;;;-143.98;100.00;68091.63;6221132;23;20326;-86
2021/05/20 05:41:05;;;;;;;13.13;9.25;;;;;;;-143.98;100.00;68091.63;6245150;23;20107;-85
2021/05/20 05:43:35;;;;;;;12.48;7.93;;;;;;;-143.98;100.00;68091.63;6246162;23;20108;-86
2021/05/20 05:46:02;;;;;;;10.15;8.63;;;;;;;-143.98;100.00;68091.63;6247419;23;20032;-86
2021/05/20 05:49:00;;;;;;;9.57;8.57;;;;;;;-143.98;100.00;68091.63;6245173;23;20145;-86
2021/05/20 05:51:30;;;;;;;11.17;8.33;;;;;;;-143.98;100.00;68091.63;6221554;23;20242;-86
2021/05/20 05:53:56;;;;;;;10.38;8.18;;;;;;;-143.98;100.00;68091.63;6222169;23;20438;-86
2021/05/20 05:56:25;;;;;;;8.80;7.72;;;;;;;-143.98;100.00;68091.63;6253051;23;20024;-86
2021/05/20 05:59:13;;;;;;;13.88;8.68;;;;;;;-143.98;100.00;68091.63;6249540;23;20106;-86
2021/05/20 06:01:50;;;;;;;12.10;7.43;;;;;;;-143.98;100.00;68091.63;6250876;23;20027;-86
2021/05/20 06:04:20;;;;;;;9.43;6.93;;;;;;;-143.98;100.00;68091.63;6229592;23;20016;-86
2021/05/20 06:06:48;;;;;;;12.93;7.75;;;;;;;-143.98;100.00;68091.63;6239242;22;20180;-85
2021/05/20 06:09:17;;;;;;;13.05;7.63;;;;;;;-143.98;100.00;68091.63;6236421;22;20031;-86
2021/05/20 06:11:48;;;;;;;13.10;7.80;;;;;;;-143.98;100.00;68091.63;6255333;23;20074;-85
2021/05/20 06:14:16;;;;;;;8.50;6.88;;;;;;;-143.98;100.00;68091.63;6252319;23;20024;-85
2021/05/20 06:16:43;;;;;;;10.45;7.55;;;;;;;-143.98;100.00;68091.63;6248822;23;20019;-85
2021/05/20 06:19:16;;;;;;;10.52;7.60;;;;;;;-143.98;100.00;68091.63;6248023;23;20050;-85
2021/05/20 06:21:43;;;;;;;10.98;7.35;;;;;;;-143.98;100.00;68091.63;6249203;22;20124;-85
2021/05/20 06:24:10;;;;;;;13.93;7.88;;;;;;;-143.98;100.00;68091.63;6249495;23;20055;-86
2021/05/20 06:26:39;;;;;;;10.05;8.02;;;;;;;-143.98;100.00;68091.63;6248080;23;20302;-86
2021/05/20 06:29:09;;;;;;;11.70;7.28;;;;;;;-143.98;100.00;68091.63;6248731;23;20547;-86
2021/05/20 06:31:37;;;;;;;11.63;7.57;;;;;;;-143.98;100.00;68091.63;6221499;23;20101;-86
2021/05/20 06:34:07;;;;;;;10.40;7.72;;;;;;;-143.98;100.00;68091.63;6221775;23;20034;-86
2021/05/20 06:36:39;;;;;;;12.65;8.27;;;;;;;-143.98;100.00;68091.63;6224387;23;20020;-86
2021/05/20 06:39:21;;;;;;;12.45;7.18;;;;;;;-143.98;100.00;68091.63;6225250;23;20035;-86
2021/05/20 06:41:50;;;;;;;11.27;7.45;;;;;;;-143.98;100.00;68091.63;6222959;23;20275;-86
2021/05/20 06:44:18;;;;;;;9.30;7.30;;;;;;;-143.98;100.00;68091.63;6223754;23;20024;-85
2021/05/20 06:46:45;;;;;;;9.10;6.97;;;;;;;-143.98;100.00;68091.63;6223738;23;20180;-87
2021/05/20 06:49:15;;;;;;;11.80;8.13;;;;;;;-143.98;100.00;68091.63;6249884;23;20062;-86
2021/05/20 06:51:42;;;;;;;12.27;8.10;;;;;;;-143.98;100.00;68091.63;6249894;23;20107;-86
2021/05/20 06:54:09;;;;;;;11.38;8.25;;;;;;;-143.98;100.00;68091.63;6223618;23;20603;-87
2021/05/20 06:56:41;;;;;;;9.98;8.20;;;;;;;-143.98;100.00;68091.63;6248487;23;20024;-86
2021/05/20 07:02:05;;;;;;;11.13;9.10;;;;;;;-143.98;100.00;68091.63;6262789;22;20161;-86
2021/05/20 07:04:32;;;;;;;9.77;7.80;;;;;;;-143.98;100.00;68091.63;6262980;22;20028;-85
2021/05/20 07:07:15;;;;;;;13.57;8.93;;;;;;;-143.98;100.00;68091.63;6238096;22;20012;-87
2021/05/20 07:09:45;;;;;;;11.43;7.65;;;;;;;-143.98;100.00;68091.63;6238747;22;20015;-87
2021/05/20 07:12:35;;;;;;;11.55;8.15;;;;;;;-143.98;100.00;68091.63;6240540;22;20020;-86
2021/05/20 07:15:04;;;;;;;9.82;7.95;;;;;;;-143.98;100.00;68091.63;6237943;22;20036;-87
2021/05/20 07:17:31;;;;;;;12.55;8.35;;;;;;;-143.98;100.00;68091.63;6262402;22;20024;-86
2021/05/20 07:19:59;;;;;;;8.85;7.85;;;;;;;-143.98;100.00;68091.63;6263827;22;20094;-85
2021/05/20 07:22:32;;;;;;;9.00;6.75;;;;;;;-143.98;100.00;68091.63;6265697;22;20036;-86
2021/05/20 07:25:04;;;;;;;10.35;6.78;;;;;;;-143.98;100.00;68091.63;6240323;22;20011;-86
2021/05/20 07:27:32;;;;;;;10.38;7.97;;;;;;;-143.98;100.00;68091.63;6259554;22;20027;-86
2021/05/20 07:30:01;;;;;;;14.02;8.68;;;;;;;-143.98;100.00;68091.63;6255209;22;20035;-85
2021/05/20 07:32:30;;;;;;;16.63;10.38;;;;;;;-143.98;100.00;68091.63;6227648;23;20088;-86
2021/05/20 07:35:06;;;;;;;13.52;9.25;;;;;;;-143.98;100.00;68091.63;6240629;22;20012;-86
2021/05/20 07:37:38;;;;;;;9.88;8.05;;;;;;;-143.98;100.00;68091.63;6233347;23;20020;-86
2021/05/20 07:40:08;;;;;;;8.20;5.70;;;;;;;-143.98;100.00;68091.63;6251940;22;20038;-86
2021/05/20 07:42:35;;;;;;;11.13;6.85;;;;;;;-143.98;100.00;68091.63;6247926;23;20028;-86
2021/05/20 07:45:26;;;;;;;12.15;6.32;;;;;;;-143.98;100.00;68091.63;6225413;23;20067;-85
2021/05/20 07:47:59;;;;;;;11.00;7.70;;;;;;;-143.98;100.00;68091.63;6227007;23;20026;-84
2021/05/20 07:50:39;;;;;;;11.95;6.55;;;;;;;-143.98;100.00;68091.63;6226346;23;20078;-85
2021/05/20 07:53:07;;;;;;;10.00;5.80;;;;;;;-143.98;100.00;68091.63;6249606;23;20051;-86
2021/05/20 07:55:35;;;;;;;9.32;5.93;;;;;;;-143.98;100.00;68091.63;6249268;23;20039;-86
2021/05/20 07:58:08;;;;;;;8.88;5.50;;;;;;;-143.98;100.00;68091.63;6226573;23;20024;-85
2021/05/20 08:00:37;;;;;;;8.07;4.75;;;;;;;-143.98;100.00;68091.63;6247578;23;20131;-85
2021/05/20 08:03:22;;;;;;;7.78;4.18;;;;;;;-143.98;100.00;68091.63;6248047;23;20444;-84
2021/05/20 08:08:59;;;;;;;6.47;5.18;;;;;;;-143.98;100.00;68091.63;6237128;23;20094;-85
2021/05/20 08:11:40;;;;;;;6.68;5.07;;;;;;;-143.98;100.00;68091.63;6226679;23;20103;-85
2021/05/20 08:14:19;;;;;;;8.55;4.97;;;;;;;-143.98;100.00;68091.63;6251407;23;20234;-85
2021/05/20 08:16:46;;;;;;;7.15;4.18;;;;;;;-143.98;100.00;68091.63;6249721;23;20020;-86
2021/05/20 08:19:14;;;;;;;5.57;4.13;;;;;;;-143.98;100.00;68091.63;6226071;23;20020;-87
2021/05/20 08:21:49;;;;;;;7.25;5.47;;;;;;;-143.98;100.00;68091.63;6249570;23;20167;-85
2021/05/20 08:24:17;;;;;;;7.75;4.45;;;;;;;-143.98;100.00;68091.63;6246523;23;20080;-85
2021/05/20 08:26:46;;;;;;;8.18;4.10;;;;;;;-143.98;100.00;68091.63;6250903;23;20075;-85
2021/05/20 08:29:13;;;;;;;5.65;4.38;;;;;;;-143.98;100.00;68091.63;6228866;23;20097;-85
2021/05/20 08:31:52;;;;;;;7.68;4.50;;;;;;;-143.98;100.00;68091.63;6225932;23;20096;-85
2021/05/20 08:34:20;;;;;;;8.57;5.78;;;;;;;-143.98;100.00;68091.63;6246449;23;20028;-84
2021/05/20 08:36:52;;;;;;;6.38;4.38;;;;;;;-143.98;100.00;68091.63;6222685;23;20238;-85
2021/05/20 08:39:40;;;;;;;8.68;4.72;;;;;;;-143.98;100.00;68091.63;6224089;23;20362;-86
2021/05/20 08:42:09;;;;;;;5.85;4.53;;;;;;;-143.98;100.00;68091.63;6252101;23;20079;-84
2021/05/20 08:44:39;;;;;;;8.30;4.88;;;;;;;-143.98;100.00;68091.63;6249861;22;20306;-86
2021/05/20 08:47:25;;;;;;;7.03;5.28;;;;;;;-143.98;100.00;68091.63;6250748;23;20462;-84
2021/05/20 08:50:05;;;;;;;6.10;4.35;;;;;;;-143.98;100.00;68091.63;6250909;23;20028;-85
2021/05/20 08:52:53;;;;;;;5.68;4.38;;;;;;;-143.98;100.00;68091.63;6248093;23;20589;-85
2021/05/20 08:55:30;;;;;;;7.72;5.72;;;;;;;-143.98;100.00;68091.63;6220125;23;20086;-84
2021/05/20 08:58:08;;;;;;;7.85;4.55;;;;;;;-143.98;100.00;68091.63;6245624;23;20031;-84
2021/05/20 09:00:39;;;;;;;7.07;4.68;;;;;;;-143.98;100.00;68091.63;6217391;23;20027;-85
2021/05/20 09:03:13;;;;;;;8.27;4.50;;;;;;;-143.98;100.00;68091.63;6221164;23;20039;-85
2021/05/20 09:05:44;;;;;;;6.22;4.05;;;;;;;-143.98;100.00;68091.63;6244472;23;20030;-84
2021/05/20 09:08:38;;;;;;;5.53;4.68;;;;;;;-143.98;100.00;68091.63;6222055;23;20160;-87
2021/05/20 09:11:22;;;;;;;7.43;4.68;;;;;;;-143.98;100.00;68091.63;6247647;23;20091;-85
2021/05/20 09:13:50;;;;;;;7.72;4.00;;;;;;;-143.98;100.00;68091.63;6258638;23;20078;-85
2021/05/20 09:16:20;;;;;;;11.38;5.57;;;;;;;-143.98;100.00;68091.63;6266511;22;20008;-86
2021/05/20 09:18:47;;;;;;;8.15;5.28;;;;;;;-143.98;100.00;68091.63;6240030;22;20016;-84
2021/05/20 09:21:14;;;;;;;7.05;5.28;;;;;;;-143.98;100.00;68091.63;6263787;22;20120;-85
2021/05/20 09:23:49;;;;;;;6.93;4.32;;;;;;;-143.98;100.00;68091.63;6224277;23;20024;-86
2021/05/20 09:26:32;;;;;;;5.00;3.35;;;;;;;-143.98;100.00;68091.63;6252291;22;20016;-85
2021/05/20 09:29:08;;;;;;;3.30;3.00;;;;;;;-143.98;100.00;68091.63;6259875;23;20043;-87
2021/05/20 09:31:47;;;;;;;4.78;3.97;;;;;;;-143.98;100.00;68091.63;6237033;23;20024;-85
2021/05/20 09:34:37;;;;;;;4.70;3.00;;;;;;;-143.98;100.00;68091.63;6259598;22;20102;-85
2021/05/20 09:37:21;;;;;;;6.55;3.50;;;;;;;-143.98;100.00;68091.63;6229831;23;20207;-84
2021/05/20 09:40:00;;;;;;;7.97;3.40;;;;;;;-143.98;100.00;68091.63;6248240;23;20102;-86
2021/05/20 09:42:32;;;;;;;5.35;2.63;;;;;;;-143.98;100.00;68091.63;6225845;23;20032;-87
2021/05/20 09:45:20;;;;;;;3.97;2.50;;;;;;;-143.98;100.00;68091.63;6250780;23;20024;-84
2021/05/20 09:47:48;;;;;;;5.95;2.25;;;;;;;-143.98;100.00;68091.63;6227993;23;20024;-86
2021/05/20 09:50:22;;;;;;;4.50;2.45;;;;;;;-143.98;100.00;68091.63;6222848;23;20104;-84
2021/05/20 09:52:50;;;;;;;5.88;1.88;;;;;;;-143.98;100.00;68091.63;6252499;23;20088;-84
2021/05/20 09:55:26;;;;;;;6.13;2.10;;;;;;;-143.98;100.00;68091.63;6226418;23;20035;-86
2021/05/20 09:57:55;;;;;;;4.13;2.45;;;;;;;-143.98;100.00;68091.63;6246842;23;20035;-85
2021/05/20 10:00:26;;;;;;;3.63;2.80;;;;;;;-143.98;100.00;68091.63;6249692;22;20063;-85
2021/05/20 10:03:06;;;;;;;7.38;2.70;;;;;;;-143.98;100.00;68091.63;6251559;23;20050;-85
2021/05/20 10:05:40;;;;;;;4.55;2.83;;;;;;;-143.98;100.00;68091.63;6253961;22;20032;-84
2021/05/20 10:08:22;;;;;;;7.45;2.22;;;;;;;-143.98;100.00;68091.63;6226760;23;20028;-87
2021/05/20 10:11:04;;;;;;;3.50;2.50;;;;;;;-143.98;100.00;68091.63;6250463;23;20016;-86
2021/05/20 10:13:35;;;;;;;4.82;2.60;;;;;;;-143.98;100.00;68091.63;6255511;23;20088;-84
2021/05/20 10:16:04;;;;;;;7.63;2.38;;;;;;;-143.98;100.00;68091.63;6249924;23;20309;-85
2021/05/20 10:18:37;;;;;;;6.70;2.70;;;;;;;-143.98;100.00;68091.63;6246745;23;20027;-85
2021/05/20 10:21:18;;;;;;;3.47;1.70;;;;;;;-143.98;100.00;68091.63;6246226;22;20200;-85
2021/05/20 10:23:49;;;;;;;6.00;2.40;;;;;;;-143.98;100.00;68091.63;6248758;23;20035;-86
2021/05/20 10:26:23;;;;;;;6.88;2.85;;;;;;;-143.98;100.00;68091.63;6249217;23;20313;-84
2021/05/20 10:29:03;;;;;;;3.90;2.93;;;;;;;-143.98;100.00;68091.63;6261892;22;20072;-84
2021/05/20 10:31:30;;;;;;;5.78;2.78;;;;;;;-143.98;100.00;68091.63;6236105;22;20374;-85
2021/05/20 10:34:07;;;;;;;3.85;1.80;;;;;;;-143.98;100.00;68091.63;6262277;22;20020;-86
2021/05/20 10:36:35;;;;;;;2.03;1.73;;;;;;;-143.98;100.00;68091.63;6262317;22;20058;-87
2021/05/20 10:39:21;;;;;;;2.30;1.73;;;;;;;-143.98;100.00;68091.63;6234584;23;20548;-84
2021/05/20 10:42:04;;;;;;;5.10;1.87;;;;;;;-143.98;100.00;68091.63;6250983;23;20028;-85
2021/05/20 10:45:12;;;;;;;3.20;1.80;;;;;;;-143.98;100.00;68091.63;6253646;23;20419;-86
2021/05/20 10:48:10;;;;;;;3.80;1.88;;;;;;;-143.98;100.00;68091.63;6263562;22;20016;-84
2021/05/20 10:50:53;;;;;;;5.03;1.58;;;;;;;-143.98;100.00;68091.63;6262133;22;20024;-84
2021/05/20 10:53:38;;;;;;;5.00;3.00;;;;;;;-143.98;100.00;68091.63;6251819;23;20111;-85
2021/05/20 10:59:41;;;;;;;3.42;2.20;;;;;;;-143.98;100.00;68091.63;6212021;22;20020;-85
2021/05/20 11:02:13;;;;;;;7.15;3.05;;;;;;;-143.98;100.00;68091.63;6251656;23;20055;-85
2021/05/20 11:04:44;;;;;;;4.70;3.10;;;;;;;-143.98;100.00;68091.63;6225780;23;20114;-84
2021/05/20 11:07:13;;;;;;;3.75;2.65;;;;;;;-143.98;100.00;68091.63;6251134;23;20128;-85
2021/05/20 11:09:51;;;;;;;2.88;1.90;;;;;;;-143.98;100.00;68091.63;6265829;22;20012;-86
2021/05/20 11:12:27;;;;;;;3.53;1.63;;;;;;;-143.98;100.00;68091.63;6240812;22;20014;-85
2021/05/20 11:15:15;;;;;;;3.35;1.50;;;;;;;-143.98;100.00;68091.63;6267101;22;20012;-85
2021/05/20 11:17:45;;;;;;;3.47;1.85;;;;;;;-143.98;100.00;68091.63;6236524;22;20024;-86
2021/05/20 11:20:56;;;;;;;6.25;2.20;;;;;;;-143.98;100.00;68091.63;6230306;23;20028;-84
2021/05/20 11:23:25;;;;;;;3.45;1.67;;;;;;;-143.98;100.00;68091.63;6253130;23;20039;-87
2021/05/20 11:26:13;;;;;;;2.38;1.30;;;;;;;-143.98;100.00;68091.63;6228336;23;20189;-86
2021/05/20 11:28:55;;;;;;;5.40;1.60;;;;;;;-143.98;100.00;68091.63;6254183;23;20050;-86
2021/05/20 11:31:42;;;;;;;;;;;;;;;;;;;;;
2021/05/20 11:37:37;;;;;;;2.70;1.58;;;;;;;-143.98;100.00;68091.63;6253566;22;20032;-86